Westminster, MD (21157)

3:33 PM EST on January 26, 2015 (GMT -0500)
Carroll Community College | Change Station
CLOSE
Current Station
Personal Weather Station
Location: Westminster, MD
Elevation: 0 ft
Nearby Weather Stations
Active Advisory: Winter Weather Advisory Active Notice: Public Information Statement

Elev 0 ft 39.53 °N, 76.99 °W | Updated 5 minutes ago

Overcast
Overcast
26.5 °F
Feels Like 18 °F
N
9.0
Wind Variable Wind from North

Today
High -- | Low -- °F
--% Chance of Precip.
Yesterday
High -- | Low -- °F
Precip. -- in
7:20 AM 5:20 PM
Waxing Crescent, 46% visible
Pressure 29.71 in
Visibility 4.0 miles
Clouds Overcast 1400 ft
Windchill 18 °F
Dew Point 24 °F
Humidity 91%
Rainfall 0.02 in
Snow Depth Not available.
UV 0 out of 12
Pollen .10 out of 12
Air Quality Not available.
Flu Activity Not available.
METAR KDMW 262020Z AUTO 01005KT 4SM -SN OVC014 M03/M04 A2971 RMK AO2

More Conditions Fewer Conditions

Pressure 29.71 in
Visibility 4.0 miles
Clouds Overcast 1400 ft
Windchill 18 °F
Dew Point 24 °F
Humidity 91%
Rainfall 0.02 in
Snow Depth Not available.
UV 0 out of 12
Pollen .10 out of 12
Air Quality Not available.
Flu Activity Not available.
METAR KDMW 262020Z AUTO 01005KT 4SM -SN OVC014 M03/M04 A2971 RMK AO2

More Conditions Fewer Conditions

10-Day Weather Forecast

Almanac

Astronomy

Jan. 26, 2015 Rise Set
Actual Time
Civil Twilight
Nautical Twilight
Astronomical Twilight
Moon
Length of Visible Light
Length of Day
Tomorrow will be .
, % of the Moon is Illuminated

Today's Extremes

State Highs State Lows

Community

WunderPhotos

Upload Photos

1,790,349 photos uploaded!

WunderBlogs® & News

Nearby

Air Quality

  Air Quality AQ Index Pollutant
Not available.

Snow Depth

Station Depth Elevation

Earthquake Activity

City Distance Mag. Time & Date
Minimum magnitude displayed is 2.5.

Coastal Water Temperatures

Place Temperature

Nearby Weather Stations